sensor_id;sensor_type;location;lat;lon;timestamp;P1;durP1;ratioP1;P2;durP2;ratioP2
32038;SDS011;18549;42.286;22.688;2024-02-28T00:01:51;36.57;;;21.67;;
32038;SDS011;18549;42.286;22.688;2024-02-28T00:04:19;35.03;;;22.83;;
32038;SDS011;18549;42.286;22.688;2024-02-28T00:06:47;43.53;;;26.07;;
32038;SDS011;18549;42.286;22.688;2024-02-28T00:09:13;106.07;;;54.37;;
32038;SDS011;18549;42.286;22.688;2024-02-28T00:11:42;76.20;;;43.67;;
32038;SDS011;18549;42.286;22.688;2024-02-28T00:14:09;58.47;;;30.87;;
32038;SDS011;18549;42.286;22.688;2024-02-28T00:16:36;42.00;;;22.67;;
32038;SDS011;18549;42.286;22.688;2024-02-28T00:19:06;29.67;;;15.10;;
32038;SDS011;18549;42.286;22.688;2024-02-28T00:21:33;35.83;;;19.97;;
32038;SDS011;18549;42.286;22.688;2024-02-28T00:24:01;34.60;;;21.67;;
32038;SDS011;18549;42.286;22.688;2024-02-28T00:26:28;51.13;;;23.80;;
32038;SDS011;18549;42.286;22.688;2024-02-28T00:28:54;44.47;;;25.00;;
32038;SDS011;18549;42.286;22.688;2024-02-28T00:31:21;35.70;;;21.90;;
32038;SDS011;18549;42.286;22.688;2024-02-28T00:33:48;32.80;;;20.27;;
32038;SDS011;18549;42.286;22.688;2024-02-28T00:36:15;39.80;;;20.27;;
32038;SDS011;18549;42.286;22.688;2024-02-28T00:38:41;29.23;;;17.80;;
32038;SDS011;18549;42.286;22.688;2024-02-28T00:41:09;30.23;;;17.17;;
32038;SDS011;18549;42.286;22.688;2024-02-28T00:43:37;26.70;;;17.97;;
32038;SDS011;18549;42.286;22.688;2024-02-28T00:46:04;28.13;;;18.40;;
32038;SDS011;18549;42.286;22.688;2024-02-28T00:48:36;41.40;;;22.03;;
32038;SDS011;18549;42.286;22.688;2024-02-28T00:51:03;38.83;;;23.70;;
32038;SDS011;18549;42.286;22.688;2024-02-28T00:53:30;42.03;;;24.20;;
32038;SDS011;18549;42.286;22.688;2024-02-28T00:55:57;41.17;;;23.17;;
32038;SDS011;18549;42.286;22.688;2024-02-28T00:58:25;35.23;;;21.23;;
32038;SDS011;18549;42.286;22.688;2024-02-28T01:00:54;42.10;;;21.37;;
32038;SDS011;18549;42.286;22.688;2024-02-28T01:03:21;35.13;;;21.30;;
32038;SDS011;18549;42.286;22.688;2024-02-28T01:05:48;36.53;;;20.90;;
32038;SDS011;18549;42.286;22.688;2024-02-28T01:08:15;39.73;;;22.10;;
32038;SDS011;18549;42.286;22.688;2024-02-28T01:10:43;38.87;;;21.77;;
32038;SDS011;18549;42.286;22.688;2024-02-28T01:13:10;34.00;;;21.97;;
32038;SDS011;18549;42.286;22.688;2024-02-28T01:15:38;35.50;;;23.23;;
32038;SDS011;18549;42.286;22.688;2024-02-28T01:18:06;33.93;;;21.60;;
32038;SDS011;18549;42.286;22.688;2024-02-28T01:20:32;32.57;;;20.03;;
32038;SDS011;18549;42.286;22.688;2024-02-28T01:22:59;34.37;;;19.93;;
32038;SDS011;18549;42.286;22.688;2024-02-28T01:25:25;34.67;;;21.60;;
32038;SDS011;18549;42.286;22.688;2024-02-28T01:27:52;34.80;;;24.10;;
32038;SDS011;18549;42.286;22.688;2024-02-28T01:30:19;42.43;;;25.10;;
32038;SDS011;18549;42.286;22.688;2024-02-28T01:32:47;53.17;;;28.50;;
32038;SDS011;18549;42.286;22.688;2024-02-28T01:35:14;50.93;;;28.13;;
32038;SDS011;18549;42.286;22.688;2024-02-28T01:37:40;42.67;;;25.40;;
32038;SDS011;18549;42.286;22.688;2024-02-28T01:40:08;50.60;;;27.17;;
32038;SDS011;18549;42.286;22.688;2024-02-28T01:42:35;39.70;;;25.00;;
32038;SDS011;18549;42.286;22.688;2024-02-28T01:45:02;35.47;;;21.83;;
32038;SDS011;18549;42.286;22.688;2024-02-28T01:47:31;34.60;;;20.07;;
32038;SDS011;18549;42.286;22.688;2024-02-28T01:49:59;41.77;;;20.07;;
32038;SDS011;18549;42.286;22.688;2024-02-28T01:52:26;37.00;;;20.87;;
32038;SDS011;18549;42.286;22.688;2024-02-28T01:54:53;41.70;;;20.17;;
32038;SDS011;18549;42.286;22.688;2024-02-28T01:57:23;38.63;;;19.37;;
32038;SDS011;18549;42.286;22.688;2024-02-28T01:59:50;26.67;;;17.07;;
32038;SDS011;18549;42.286;22.688;2024-02-28T02:02:19;29.57;;;17.20;;
32038;SDS011;18549;42.286;22.688;2024-02-28T02:04:46;22.73;;;15.77;;
32038;SDS011;18549;42.286;22.688;2024-02-28T02:07:14;22.97;;;14.47;;
32038;SDS011;18549;42.286;22.688;2024-02-28T02:09:41;29.10;;;15.50;;
32038;SDS011;18549;42.286;22.688;2024-02-28T02:12:08;30.13;;;15.77;;
32038;SDS011;18549;42.286;22.688;2024-02-28T02:14:34;25.33;;;15.33;;
32038;SDS011;18549;42.286;22.688;2024-02-28T02:17:01;28.30;;;16.20;;
32038;SDS011;18549;42.286;22.688;2024-02-28T02:19:28;24.47;;;16.03;;
32038;SDS011;18549;42.286;22.688;2024-02-28T02:21:57;30.37;;;17.23;;
32038;SDS011;18549;42.286;22.688;2024-02-28T02:24:26;25.20;;;16.17;;
32038;SDS011;18549;42.286;22.688;2024-02-28T02:26:54;33.03;;;18.27;;
32038;SDS011;18549;42.286;22.688;2024-02-28T02:29:21;36.00;;;19.67;;
32038;SDS011;18549;42.286;22.688;2024-02-28T02:31:48;38.67;;;22.10;;
32038;SDS011;18549;42.286;22.688;2024-02-28T02:34:15;35.47;;;20.70;;
32038;SDS011;18549;42.286;22.688;2024-02-28T02:36:42;31.77;;;20.27;;
32038;SDS011;18549;42.286;22.688;2024-02-28T02:39:08;29.17;;;19.47;;
32038;SDS011;18549;42.286;22.688;2024-02-28T02:41:37;29.47;;;19.90;;
32038;SDS011;18549;42.286;22.688;2024-02-28T02:44:04;32.80;;;21.00;;
32038;SDS011;18549;42.286;22.688;2024-02-28T02:46:30;30.43;;;17.83;;
32038;SDS011;18549;42.286;22.688;2024-02-28T02:48:57;24.00;;;15.53;;
32038;SDS011;18549;42.286;22.688;2024-02-28T02:51:24;17.07;;;13.37;;
32038;SDS011;18549;42.286;22.688;2024-02-28T02:53:51;27.03;;;13.20;;
32038;SDS011;18549;42.286;22.688;2024-02-28T02:56:18;23.50;;;14.97;;
32038;SDS011;18549;42.286;22.688;2024-02-28T02:58:46;30.50;;;16.97;;
32038;SDS011;18549;42.286;22.688;2024-02-28T03:01:13;30.03;;;18.30;;
32038;SDS011;18549;42.286;22.688;2024-02-28T03:03:40;35.00;;;21.10;;
32038;SDS011;18549;42.286;22.688;2024-02-28T03:06:07;28.70;;;20.77;;
32038;SDS011;18549;42.286;22.688;2024-02-28T03:08:35;27.77;;;19.63;;
32038;SDS011;18549;42.286;22.688;2024-02-28T03:11:01;33.07;;;19.87;;
32038;SDS011;18549;42.286;22.688;2024-02-28T03:13:29;33.30;;;16.70;;
32038;SDS011;18549;42.286;22.688;2024-02-28T03:15:57;34.00;;;15.80;;
32038;SDS011;18549;42.286;22.688;2024-02-28T03:18:24;29.27;;;16.90;;
32038;SDS011;18549;42.286;22.688;2024-02-28T03:20:51;29.13;;;16.73;;
32038;SDS011;18549;42.286;22.688;2024-02-28T03:23:18;36.20;;;22.67;;
32038;SDS011;18549;42.286;22.688;2024-02-28T03:25:44;31.93;;;18.57;;
32038;SDS011;18549;42.286;22.688;2024-02-28T03:28:11;24.87;;;16.87;;
32038;SDS011;18549;42.286;22.688;2024-02-28T03:30:38;33.17;;;17.23;;
32038;SDS011;18549;42.286;22.688;2024-02-28T03:33:08;35.37;;;21.40;;
32038;SDS011;18549;42.286;22.688;2024-02-28T03:35:35;42.10;;;21.50;;
32038;SDS011;18549;42.286;22.688;2024-02-28T03:38:02;32.73;;;18.83;;
32038;SDS011;18549;42.286;22.688;2024-02-28T03:40:29;36.73;;;20.63;;
32038;SDS011;18549;42.286;22.688;2024-02-28T03:42:56;34.50;;;21.07;;
32038;SDS011;18549;42.286;22.688;2024-02-28T03:45:24;26.67;;;18.23;;
32038;SDS011;18549;42.286;22.688;2024-02-28T03:47:53;35.37;;;19.20;;
32038;SDS011;18549;42.286;22.688;2024-02-28T03:50:21;45.43;;;19.30;;
32038;SDS011;18549;42.286;22.688;2024-02-28T03:52:48;32.47;;;18.50;;
32038;SDS011;18549;42.286;22.688;2024-02-28T03:55:15;27.47;;;17.07;;
32038;SDS011;18549;42.286;22.688;2024-02-28T03:57:42;27.83;;;18.20;;
32038;SDS011;18549;42.286;22.688;2024-02-28T04:00:09;32.07;;;20.43;;
32038;SDS011;18549;42.286;22.688;2024-02-28T04:02:38;35.73;;;19.77;;
32038;SDS011;18549;42.286;22.688;2024-02-28T04:05:05;34.37;;;19.00;;
32038;SDS011;18549;42.286;22.688;2024-02-28T04:07:36;31.70;;;19.07;;
32038;SDS011;18549;42.286;22.688;2024-02-28T04:10:03;32.83;;;20.90;;
32038;SDS011;18549;42.286;22.688;2024-02-28T04:12:31;36.33;;;21.27;;
32038;SDS011;18549;42.286;22.688;2024-02-28T04:14:58;37.30;;;20.53;;
32038;SDS011;18549;42.286;22.688;2024-02-28T04:17:24;34.07;;;19.60;;
32038;SDS011;18549;42.286;22.688;2024-02-28T04:19:51;30.83;;;21.53;;
32038;SDS011;18549;42.286;22.688;2024-02-28T04:22:18;39.30;;;23.20;;
32038;SDS011;18549;42.286;22.688;2024-02-28T04:24:46;38.90;;;23.53;;
32038;SDS011;18549;42.286;22.688;2024-02-28T04:27:13;56.37;;;25.60;;
32038;SDS011;18549;42.286;22.688;2024-02-28T04:29:40;53.63;;;25.93;;
32038;SDS011;18549;42.286;22.688;2024-02-28T04:32:07;44.37;;;25.27;;
32038;SDS011;18549;42.286;22.688;2024-02-28T04:34:35;39.77;;;25.17;;
32038;SDS011;18549;42.286;22.688;2024-02-28T04:37:02;48.67;;;24.63;;
32038;SDS011;18549;42.286;22.688;2024-02-28T04:39:29;41.97;;;24.80;;
32038;SDS011;18549;42.286;22.688;2024-02-28T04:41:57;41.60;;;25.50;;
32038;SDS011;18549;42.286;22.688;2024-02-28T04:44:24;46.80;;;25.80;;
32038;SDS011;18549;42.286;22.688;2024-02-28T04:46:51;50.47;;;24.87;;
32038;SDS011;18549;42.286;22.688;2024-02-28T04:49:17;42.20;;;24.57;;
32038;SDS011;18549;42.286;22.688;2024-02-28T04:51:45;47.60;;;26.13;;
32038;SDS011;18549;42.286;22.688;2024-02-28T04:54:11;54.33;;;29.60;;
32038;SDS011;18549;42.286;22.688;2024-02-28T04:56:39;58.03;;;30.20;;
32038;SDS011;18549;42.286;22.688;2024-02-28T04:59:07;52.53;;;31.93;;
32038;SDS011;18549;42.286;22.688;2024-02-28T05:01:34;49.13;;;29.30;;
32038;SDS011;18549;42.286;22.688;2024-02-28T05:04:04;70.50;;;33.40;;
32038;SDS011;18549;42.286;22.688;2024-02-28T05:06:31;54.73;;;34.97;;
32038;SDS011;18549;42.286;22.688;2024-02-28T05:08:58;57.00;;;34.83;;
32038;SDS011;18549;42.286;22.688;2024-02-28T05:11:25;56.80;;;33.30;;
32038;SDS011;18549;42.286;22.688;2024-02-28T05:13:52;56.40;;;33.07;;
32038;SDS011;18549;42.286;22.688;2024-02-28T05:16:20;53.27;;;33.00;;
32038;SDS011;18549;42.286;22.688;2024-02-28T05:18:47;53.07;;;33.67;;
32038;SDS011;18549;42.286;22.688;2024-02-28T05:21:14;56.77;;;31.53;;
32038;SDS011;18549;42.286;22.688;2024-02-28T05:23:40;57.10;;;30.60;;
32038;SDS011;18549;42.286;22.688;2024-02-28T05:26:07;48.60;;;29.00;;
32038;SDS011;18549;42.286;22.688;2024-02-28T05:28:34;76.40;;;44.83;;
32038;SDS011;18549;42.286;22.688;2024-02-28T05:31:01;68.50;;;38.87;;
32038;SDS011;18549;42.286;22.688;2024-02-28T05:33:30;61.07;;;35.77;;
32038;SDS011;18549;42.286;22.688;2024-02-28T05:35:57;51.70;;;32.20;;
32038;SDS011;18549;42.286;22.688;2024-02-28T05:38:24;54.77;;;33.53;;
32038;SDS011;18549;42.286;22.688;2024-02-28T05:40:51;49.93;;;31.93;;
32038;SDS011;18549;42.286;22.688;2024-02-28T05:43:18;62.07;;;32.07;;
32038;SDS011;18549;42.286;22.688;2024-02-28T05:45:44;52.63;;;33.93;;
32038;SDS011;18549;42.286;22.688;2024-02-28T05:48:11;77.87;;;47.60;;
32038;SDS011;18549;42.286;22.688;2024-02-28T05:50:39;58.83;;;34.33;;
32038;SDS011;18549;42.286;22.688;2024-02-28T05:53:06;70.67;;;38.07;;
32038;SDS011;18549;42.286;22.688;2024-02-28T05:55:32;78.23;;;40.53;;
32038;SDS011;18549;42.286;22.688;2024-02-28T05:57:59;80.93;;;45.97;;
32038;SDS011;18549;42.286;22.688;2024-02-28T06:00:26;74.50;;;43.33;;
32038;SDS011;18549;42.286;22.688;2024-02-28T06:02:53;77.03;;;41.97;;
32038;SDS011;18549;42.286;22.688;2024-02-28T06:05:20;92.33;;;45.77;;
32038;SDS011;18549;42.286;22.688;2024-02-28T06:07:48;98.77;;;47.40;;
32038;SDS011;18549;42.286;22.688;2024-02-28T06:10:14;74.53;;;37.67;;
32038;SDS011;18549;42.286;22.688;2024-02-28T06:12:41;75.53;;;38.00;;
32038;SDS011;18549;42.286;22.688;2024-02-28T06:15:08;75.07;;;39.23;;
32038;SDS011;18549;42.286;22.688;2024-02-28T06:17:35;86.87;;;44.00;;
32038;SDS011;18549;42.286;22.688;2024-02-28T06:20:02;90.87;;;45.80;;
32038;SDS011;18549;42.286;22.688;2024-02-28T06:22:30;80.53;;;44.03;;
32038;SDS011;18549;42.286;22.688;2024-02-28T06:24:58;82.07;;;44.30;;
32038;SDS011;18549;42.286;22.688;2024-02-28T06:27:24;96.57;;;49.33;;
32038;SDS011;18549;42.286;22.688;2024-02-28T06:29:52;92.67;;;49.60;;
32038;SDS011;18549;42.286;22.688;2024-02-28T06:32:18;87.93;;;47.67;;
32038;SDS011;18549;42.286;22.688;2024-02-28T06:34:45;86.23;;;53.63;;
32038;SDS011;18549;42.286;22.688;2024-02-28T06:37:12;88.23;;;54.03;;
32038;SDS011;18549;42.286;22.688;2024-02-28T06:39:39;94.43;;;52.53;;
32038;SDS011;18549;42.286;22.688;2024-02-28T06:42:07;102.37;;;54.07;;
32038;SDS011;18549;42.286;22.688;2024-02-28T06:44:33;87.87;;;45.60;;
32038;SDS011;18549;42.286;22.688;2024-02-28T06:47:00;79.73;;;47.97;;
32038;SDS011;18549;42.286;22.688;2024-02-28T06:49:27;109.83;;;59.40;;
32038;SDS011;18549;42.286;22.688;2024-02-28T06:51:53;114.47;;;62.20;;
32038;SDS011;18549;42.286;22.688;2024-02-28T06:54:23;119.47;;;63.63;;
32038;SDS011;18549;42.286;22.688;2024-02-28T06:56:50;117.13;;;76.33;;
32038;SDS011;18549;42.286;22.688;2024-02-28T06:59:18;106.80;;;61.47;;
32038;SDS011;18549;42.286;22.688;2024-02-28T07:01:45;106.20;;;66.80;;
32038;SDS011;18549;42.286;22.688;2024-02-28T07:04:11;104.63;;;59.23;;
32038;SDS011;18549;42.286;22.688;2024-02-28T07:06:38;98.17;;;60.20;;
32038;SDS011;18549;42.286;22.688;2024-02-28T07:09:04;92.63;;;52.67;;
32038;SDS011;18549;42.286;22.688;2024-02-28T07:11:31;84.40;;;48.03;;
32038;SDS011;18549;42.286;22.688;2024-02-28T07:13:58;83.83;;;50.03;;
32038;SDS011;18549;42.286;22.688;2024-02-28T07:16:28;70.47;;;43.07;;
32038;SDS011;18549;42.286;22.688;2024-02-28T07:18:55;80.80;;;43.22;;
32038;SDS011;18549;42.286;22.688;2024-02-28T07:21:22;90.20;;;53.37;;
32038;SDS011;18549;42.286;22.688;2024-02-28T07:23:48;95.13;;;51.17;;
32038;SDS011;18549;42.286;22.688;2024-02-28T07:26:15;90.17;;;52.90;;
32038;SDS011;18549;42.286;22.688;2024-02-28T07:28:42;97.37;;;54.57;;
32038;SDS011;18549;42.286;22.688;2024-02-28T07:31:14;107.97;;;62.93;;
32038;SDS011;18549;42.286;22.688;2024-02-28T07:33:42;110.43;;;66.77;;
32038;SDS011;18549;42.286;22.688;2024-02-28T07:36:09;89.87;;;56.13;;
32038;SDS011;18549;42.286;22.688;2024-02-28T07:38:36;97.17;;;58.23;;
32038;SDS011;18549;42.286;22.688;2024-02-28T07:41:03;95.03;;;61.27;;
32038;SDS011;18549;42.286;22.688;2024-02-28T07:43:30;98.73;;;57.13;;
32038;SDS011;18549;42.286;22.688;2024-02-28T07:46:05;84.03;;;52.43;;
32038;SDS011;18549;42.286;22.688;2024-02-28T07:48:32;83.77;;;54.70;;
32038;SDS011;18549;42.286;22.688;2024-02-28T07:51:01;93.17;;;58.07;;
32038;SDS011;18549;42.286;22.688;2024-02-28T07:53:27;94.23;;;63.83;;
32038;SDS011;18549;42.286;22.688;2024-02-28T07:55:55;96.93;;;56.67;;
32038;SDS011;18549;42.286;22.688;2024-02-28T07:58:21;87.93;;;53.17;;
32038;SDS011;18549;42.286;22.688;2024-02-28T08:00:48;93.70;;;64.27;;
32038;SDS011;18549;42.286;22.688;2024-02-28T08:03:17;94.50;;;51.43;;
32038;SDS011;18549;42.286;22.688;2024-02-28T08:05:44;85.77;;;50.87;;
32038;SDS011;18549;42.286;22.688;2024-02-28T08:08:12;86.53;;;50.90;;
32038;SDS011;18549;42.286;22.688;2024-02-28T08:10:39;90.83;;;50.13;;
32038;SDS011;18549;42.286;22.688;2024-02-28T08:13:06;93.77;;;56.00;;
32038;SDS011;18549;42.286;22.688;2024-02-28T08:15:36;82.50;;;50.57;;
32038;SDS011;18549;42.286;22.688;2024-02-28T08:18:02;67.53;;;42.30;;
32038;SDS011;18549;42.286;22.688;2024-02-28T08:20:29;58.00;;;35.93;;
32038;SDS011;18549;42.286;22.688;2024-02-28T08:22:56;57.27;;;34.87;;
32038;SDS011;18549;42.286;22.688;2024-02-28T08:25:25;47.03;;;27.10;;
32038;SDS011;18549;42.286;22.688;2024-02-28T08:27:51;42.70;;;26.67;;
32038;SDS011;18549;42.286;22.688;2024-02-28T08:30:18;37.30;;;24.03;;
32038;SDS011;18549;42.286;22.688;2024-02-28T08:32:45;34.73;;;22.90;;
32038;SDS011;18549;42.286;22.688;2024-02-28T08:35:11;42.00;;;21.97;;
32038;SDS011;18549;42.286;22.688;2024-02-28T08:37:40;48.50;;;24.87;;
32038;SDS011;18549;42.286;22.688;2024-02-28T08:40:07;46.13;;;25.50;;
32038;SDS011;18549;42.286;22.688;2024-02-28T08:42:35;38.37;;;26.57;;
32038;SDS011;18549;42.286;22.688;2024-02-28T08:45:02;49.17;;;25.30;;
32038;SDS011;18549;42.286;22.688;2024-02-28T08:47:31;42.03;;;25.67;;
32038;SDS011;18549;42.286;22.688;2024-02-28T08:49:58;33.80;;;21.33;;
32038;SDS011;18549;42.286;22.688;2024-02-28T08:52:25;24.67;;;16.13;;
32038;SDS011;18549;42.286;22.688;2024-02-28T08:54:51;23.97;;;13.83;;
32038;SDS011;18549;42.286;22.688;2024-02-28T08:57:18;25.97;;;14.30;;
32038;SDS011;18549;42.286;22.688;2024-02-28T08:59:48;25.97;;;13.67;;
32038;SDS011;18549;42.286;22.688;2024-02-28T09:02:15;19.40;;;12.03;;
32038;SDS011;18549;42.286;22.688;2024-02-28T09:04:42;22.63;;;13.63;;
32038;SDS011;18549;42.286;22.688;2024-02-28T09:07:09;23.30;;;11.20;;
32038;SDS011;18549;42.286;22.688;2024-02-28T09:09:41;22.43;;;13.47;;
32038;SDS011;18549;42.286;22.688;2024-02-28T09:12:08;25.10;;;17.13;;
32038;SDS011;18549;42.286;22.688;2024-02-28T09:14:35;28.00;;;13.60;;
32038;SDS011;18549;42.286;22.688;2024-02-28T09:17:03;21.03;;;14.47;;
32038;SDS011;18549;42.286;22.688;2024-02-28T09:19:30;31.20;;;15.37;;
32038;SDS011;18549;42.286;22.688;2024-02-28T09:21:57;26.70;;;16.17;;
32038;SDS011;18549;42.286;22.688;2024-02-28T09:24:24;22.57;;;13.97;;
32038;SDS011;18549;42.286;22.688;2024-02-28T09:26:52;20.87;;;13.43;;
32038;SDS011;18549;42.286;22.688;2024-02-28T09:29:19;25.37;;;14.30;;
32038;SDS011;18549;42.286;22.688;2024-02-28T09:31:46;25.17;;;12.63;;
32038;SDS011;18549;42.286;22.688;2024-02-28T09:34:14;21.80;;;11.13;;
32038;SDS011;18549;42.286;22.688;2024-02-28T09:36:41;22.57;;;12.40;;
32038;SDS011;18549;42.286;22.688;2024-02-28T09:39:10;21.30;;;13.17;;
32038;SDS011;18549;42.286;22.688;2024-02-28T09:41:37;19.73;;;11.70;;
32038;SDS011;18549;42.286;22.688;2024-02-28T09:44:03;20.43;;;11.87;;
32038;SDS011;18549;42.286;22.688;2024-02-28T09:46:32;19.07;;;12.23;;
32038;SDS011;18549;42.286;22.688;2024-02-28T09:49:01;25.37;;;13.17;;
32038;SDS011;18549;42.286;22.688;2024-02-28T09:51:31;24.03;;;12.77;;
32038;SDS011;18549;42.286;22.688;2024-02-28T09:53:59;19.17;;;12.57;;
32038;SDS011;18549;42.286;22.688;2024-02-28T09:56:26;18.40;;;13.37;;
32038;SDS011;18549;42.286;22.688;2024-02-28T09:58:56;22.00;;;12.60;;
32038;SDS011;18549;42.286;22.688;2024-02-28T10:01:23;23.90;;;11.93;;
32038;SDS011;18549;42.286;22.688;2024-02-28T10:03:52;20.43;;;12.47;;
32038;SDS011;18549;42.286;22.688;2024-02-28T10:06:21;22.97;;;13.57;;
32038;SDS011;18549;42.286;22.688;2024-02-28T10:08:50;37.87;;;14.43;;
32038;SDS011;18549;42.286;22.688;2024-02-28T10:11:17;27.77;;;13.33;;
32038;SDS011;18549;42.286;22.688;2024-02-28T10:13:46;30.30;;;13.60;;
32038;SDS011;18549;42.286;22.688;2024-02-28T10:16:12;27.23;;;13.20;;
32038;SDS011;18549;42.286;22.688;2024-02-28T10:18:40;23.83;;;13.53;;
32038;SDS011;18549;42.286;22.688;2024-02-28T10:21:08;25.63;;;15.20;;
32038;SDS011;18549;42.286;22.688;2024-02-28T10:23:35;26.83;;;15.20;;
32038;SDS011;18549;42.286;22.688;2024-02-28T10:26:04;38.77;;;18.13;;
32038;SDS011;18549;42.286;22.688;2024-02-28T10:28:31;21.83;;;13.47;;
32038;SDS011;18549;42.286;22.688;2024-02-28T10:30:57;24.00;;;14.63;;
32038;SDS011;18549;42.286;22.688;2024-02-28T10:33:26;21.53;;;14.37;;
32038;SDS011;18549;42.286;22.688;2024-02-28T10:35:55;25.90;;;15.50;;
32038;SDS011;18549;42.286;22.688;2024-02-28T10:38:22;33.00;;;16.20;;
32038;SDS011;18549;42.286;22.688;2024-02-28T10:40:48;27.13;;;15.23;;
32038;SDS011;18549;42.286;22.688;2024-02-28T10:43:18;31.00;;;18.57;;
32038;SDS011;18549;42.286;22.688;2024-02-28T10:45:46;32.13;;;19.27;;
32038;SDS011;18549;42.286;22.688;2024-02-28T10:48:14;28.23;;;18.13;;
32038;SDS011;18549;42.286;22.688;2024-02-28T10:50:41;32.13;;;18.20;;
32038;SDS011;18549;42.286;22.688;2024-02-28T10:53:14;36.23;;;18.60;;
32038;SDS011;18549;42.286;22.688;2024-02-28T10:55:41;34.30;;;18.87;;
32038;SDS011;18549;42.286;22.688;2024-02-28T10:58:09;29.87;;;19.43;;
32038;SDS011;18549;42.286;22.688;2024-02-28T11:00:38;30.87;;;18.60;;
32038;SDS011;18549;42.286;22.688;2024-02-28T11:03:06;28.17;;;19.30;;
32038;SDS011;18549;42.286;22.688;2024-02-28T11:05:35;34.03;;;18.73;;
32038;SDS011;18549;42.286;22.688;2024-02-28T11:08:04;33.43;;;19.33;;
32038;SDS011;18549;42.286;22.688;2024-02-28T11:10:31;31.17;;;18.33;;
32038;SDS011;18549;42.286;22.688;2024-02-28T11:12:59;25.63;;;15.07;;
32038;SDS011;18549;42.286;22.688;2024-02-28T11:15:26;31.40;;;18.20;;
32038;SDS011;18549;42.286;22.688;2024-02-28T11:17:54;23.90;;;16.43;;
32038;SDS011;18549;42.286;22.688;2024-02-28T11:20:21;35.40;;;17.67;;
32038;SDS011;18549;42.286;22.688;2024-02-28T11:22:48;32.10;;;18.03;;
32038;SDS011;18549;42.286;22.688;2024-02-28T11:25:15;36.03;;;18.17;;
32038;SDS011;18549;42.286;22.688;2024-02-28T11:27:46;31.73;;;18.30;;
32038;SDS011;18549;42.286;22.688;2024-02-28T11:30:13;28.77;;;16.53;;
32038;SDS011;18549;42.286;22.688;2024-02-28T11:32:40;29.77;;;16.73;;
32038;SDS011;18549;42.286;22.688;2024-02-28T11:35:09;27.83;;;14.75;;
32038;SDS011;18549;42.286;22.688;2024-02-28T11:37:37;31.73;;;16.70;;
32038;SDS011;18549;42.286;22.688;2024-02-28T11:40:06;25.37;;;16.37;;
32038;SDS011;18549;42.286;22.688;2024-02-28T11:42:34;25.80;;;15.90;;
32038;SDS011;18549;42.286;22.688;2024-02-28T11:45:01;22.77;;;13.32;;
32038;SDS011;18549;42.286;22.688;2024-02-28T11:47:30;20.40;;;14.50;;
32038;SDS011;18549;42.286;22.688;2024-02-28T11:49:58;21.57;;;13.40;;
32038;SDS011;18549;42.286;22.688;2024-02-28T11:52:26;20.20;;;13.70;;
32038;SDS011;18549;42.286;22.688;2024-02-28T11:54:53;20.07;;;11.90;;
32038;SDS011;18549;42.286;22.688;2024-02-28T11:57:19;23.93;;;10.67;;
32038;SDS011;18549;42.286;22.688;2024-02-28T11:59:47;24.90;;;12.43;;
32038;SDS011;18549;42.286;22.688;2024-02-28T12:02:17;22.37;;;11.47;;
32038;SDS011;18549;42.286;22.688;2024-02-28T12:04:44;16.77;;;10.83;;
32038;SDS011;18549;42.286;22.688;2024-02-28T12:07:15;24.63;;;12.00;;
32038;SDS011;18549;42.286;22.688;2024-02-28T12:09:43;26.00;;;11.57;;
32038;SDS011;18549;42.286;22.688;2024-02-28T12:12:11;23.77;;;11.67;;
32038;SDS011;18549;42.286;22.688;2024-02-28T12:14:38;17.50;;;12.20;;
32038;SDS011;18549;42.286;22.688;2024-02-28T12:17:07;23.30;;;11.23;;
32038;SDS011;18549;42.286;22.688;2024-02-28T12:19:35;18.03;;;10.90;;
32038;SDS011;18549;42.286;22.688;2024-02-28T12:22:01;19.33;;;11.30;;
32038;SDS011;18549;42.286;22.688;2024-02-28T12:24:29;22.80;;;13.20;;
32038;SDS011;18549;42.286;22.688;2024-02-28T12:26:57;25.80;;;11.20;;
32038;SDS011;18549;42.286;22.688;2024-02-28T12:29:24;23.43;;;11.73;;
32038;SDS011;18549;42.286;22.688;2024-02-28T12:31:50;27.17;;;12.33;;
32038;SDS011;18549;42.286;22.688;2024-02-28T12:34:17;19.90;;;11.40;;
32038;SDS011;18549;42.286;22.688;2024-02-28T12:36:44;23.58;;;11.90;;
32038;SDS011;18549;42.286;22.688;2024-02-28T12:39:11;20.20;;;12.25;;
32038;SDS011;18549;42.286;22.688;2024-02-28T12:41:38;38.33;;;20.65;;
32038;SDS011;18549;42.286;22.688;2024-02-28T12:44:06;23.20;;;12.57;;
32038;SDS011;18549;42.286;22.688;2024-02-28T12:46:34;17.87;;;10.77;;
32038;SDS011;18549;42.286;22.688;2024-02-28T12:49:01;26.27;;;12.45;;
32038;SDS011;18549;42.286;22.688;2024-02-28T12:51:38;23.38;;;11.77;;
32038;SDS011;18549;42.286;22.688;2024-02-28T12:54:06;29.15;;;13.60;;
32038;SDS011;18549;42.286;22.688;2024-02-28T12:56:34;22.97;;;12.07;;
32038;SDS011;18549;42.286;22.688;2024-02-28T12:59:01;28.30;;;12.68;;
32038;SDS011;18549;42.286;22.688;2024-02-28T13:01:29;10.13;;;6.00;;
32038;SDS011;18549;42.286;22.688;2024-02-28T13:03:56;11.70;;;7.35;;
32038;SDS011;18549;42.286;22.688;2024-02-28T13:06:23;10.57;;;7.12;;
32038;SDS011;18549;42.286;22.688;2024-02-28T13:08:50;12.75;;;5.75;;
32038;SDS011;18549;42.286;22.688;2024-02-28T13:11:18;19.65;;;6.87;;
32038;SDS011;18549;42.286;22.688;2024-02-28T13:13:45;17.87;;;7.10;;
32038;SDS011;18549;42.286;22.688;2024-02-28T13:16:12;12.97;;;7.60;;
32038;SDS011;18549;42.286;22.688;2024-02-28T13:18:40;19.52;;;7.90;;
32038;SDS011;18549;42.286;22.688;2024-02-28T13:21:07;16.17;;;6.43;;
32038;SDS011;18549;42.286;22.688;2024-02-28T13:23:34;20.42;;;6.62;;
32038;SDS011;18549;42.286;22.688;2024-02-28T13:26:02;11.43;;;6.55;;
32038;SDS011;18549;42.286;22.688;2024-02-28T13:28:29;13.77;;;7.65;;
32038;SDS011;18549;42.286;22.688;2024-02-28T13:30:56;18.50;;;7.05;;
32038;SDS011;18549;42.286;22.688;2024-02-28T13:33:23;14.83;;;6.93;;
32038;SDS011;18549;42.286;22.688;2024-02-28T13:35:54;13.60;;;5.78;;
32038;SDS011;18549;42.286;22.688;2024-02-28T13:38:21;20.97;;;6.33;;
32038;SDS011;18549;42.286;22.688;2024-02-28T13:40:48;12.30;;;5.60;;
32038;SDS011;18549;42.286;22.688;2024-02-28T13:43:16;22.05;;;6.97;;
32038;SDS011;18549;42.286;22.688;2024-02-28T13:45:45;13.60;;;5.55;;
32038;SDS011;18549;42.286;22.688;2024-02-28T13:48:15;11.88;;;5.45;;
32038;SDS011;18549;42.286;22.688;2024-02-28T13:50:43;19.43;;;6.30;;
32038;SDS011;18549;42.286;22.688;2024-02-28T13:53:11;27.50;;;6.13;;
32038;SDS011;18549;42.286;22.688;2024-02-28T13:55:40;9.63;;;5.55;;
32038;SDS011;18549;42.286;22.688;2024-02-28T13:58:07;9.40;;;4.97;;
32038;SDS011;18549;42.286;22.688;2024-02-28T14:00:36;18.00;;;6.05;;
32038;SDS011;18549;42.286;22.688;2024-02-28T14:03:03;13.52;;;5.80;;
32038;SDS011;18549;42.286;22.688;2024-02-28T14:05:31;13.32;;;5.60;;
32038;SDS011;18549;42.286;22.688;2024-02-28T14:07:58;14.93;;;5.95;;
32038;SDS011;18549;42.286;22.688;2024-02-28T14:10:26;25.15;;;6.55;;